Time;durP1;ratioP1;P1;durP2;ratioP2;P2;SDS_P1;SDS_P2;PMS_P1;PMS_P2;Temp;Humidity;BMP_temperature;BMP_pressure;BME280_temperature;BME280_humidity;BME280_pressure;Samples;Min_cycle;Max_cycle;Signal;HPM_P1;HPM_P2
2023/10/09 00:02:07;;;;;;;7.70;4.43;;;21.20;95.50;;;;;;6076635;22;45109;-66
2023/10/09 00:04:51;;;;;;;7.28;3.85;;;21.20;95.10;;;;;;6091507;22;45427;-66
2023/10/09 00:07:20;;;;;;;7.75;4.15;;;21.30;95.10;;;;;;6120885;22;47141;-66
2023/10/09 00:09:55;;;;;;;6.40;3.45;;;21.30;95.10;;;;;;6118411;22;45429;-66
2023/10/09 00:12:23;;;;;;;9.43;4.22;;;21.30;95.10;;;;;;6103849;22;45221;-66
2023/10/09 00:14:55;;;;;;;5.80;3.45;;;21.30;95.10;;;;;;6118834;22;44847;-66
2023/10/09 00:17:30;;;;;;;6.72;3.55;;;21.20;95.10;;;;;;6107064;22;45103;-66
2023/10/09 00:20:17;;;;;;;4.80;3.10;;;21.20;95.10;;;;;;6091465;22;45042;-66
2023/10/09 00:22:46;;;;;;;5.88;3.70;;;21.20;95.10;;;;;;6085417;22;45406;-67
2023/10/09 00:25:22;;;;;;;6.72;3.75;;;21.20;95.10;;;;;;6072257;22;45156;-67
2023/10/09 00:27:54;;;;;;;6.30;3.63;;;21.20;95.10;;;;;;6072970;22;46339;-67
2023/10/09 00:30:30;;;;;;;5.33;3.67;;;21.20;95.10;;;;;;6091607;22;45333;-67
2023/10/09 00:33:11;;;;;;;6.28;3.60;;;21.20;95.10;;;;;;6091265;22;45076;-67
2023/10/09 00:35:55;;;;;;;5.32;3.60;;;21.20;95.00;;;;;;6109547;22;45035;-68
2023/10/09 00:38:39;;;;;;;5.88;3.58;;;21.30;95.10;;;;;;6083869;22;46486;-67
2023/10/09 00:41:24;;;;;;;6.38;3.80;;;21.30;95.00;;;;;;6157746;22;45314;-67
2023/10/09 00:44:07;;;;;;;5.45;3.35;;;21.30;95.00;;;;;;6093806;22;45227;-67
2023/10/09 00:47:20;;;;;;;5.68;3.30;;;21.30;95.00;;;;;;6108042;22;45072;-67
2023/10/09 00:50:10;;;;;;;5.78;3.42;;;21.30;95.00;;;;;;6076473;22;46551;-68
2023/10/09 00:53:01;;;;;;;4.53;3.13;;;21.30;95.10;;;;;;6041768;22;45312;-67
2023/10/09 00:55:44;;;;;;;4.30;2.80;;;21.30;95.10;;;;;;6062282;22;45168;-67
2023/10/09 00:58:30;;;;;;;5.20;3.30;;;21.30;95.10;;;;;;6068941;22;45468;-67
2023/10/09 01:01:19;;;;;;;4.70;2.67;;;21.30;95.10;;;;;;6052225;22;45631;-67
2023/10/09 01:07:37;;;;;;;4.35;2.83;;;21.30;95.10;;;;;;6050130;22;45053;-67
2023/10/09 01:10:18;;;;;;;5.47;3.05;;;21.30;95.10;;;;;;6074046;22;45135;-67
2023/10/09 01:12:48;;;;;;;4.18;2.85;;;21.30;95.10;;;;;;6071412;22;46566;-67
2023/10/09 01:15:36;;;;;;;5.15;3.13;;;21.30;95.10;;;;;;6088862;22;45179;-68
2023/10/09 01:21:02;;;;;;;4.88;2.60;;;21.30;95.20;;;;;;6078932;22;45279;-67
2023/10/09 01:24:31;;;;;;;4.78;2.80;;;21.30;95.20;;;;;;6117574;22;46755;-67
2023/10/09 01:27:17;;;;;;;6.05;2.70;;;21.20;95.20;;;;;;6078648;22;45283;-67
2023/10/09 01:29:45;;;;;;;5.90;3.10;;;21.20;95.20;;;;;;6063124;22;45030;-67
2023/10/09 01:32:44;;;;;;;6.00;2.75;;;21.20;95.20;;;;;;6127053;22;45310;-67
2023/10/09 01:35:26;;;;;;;3.95;2.50;;;21.20;95.20;;;;;;6072938;22;46277;-67
2023/10/09 01:38:40;;;;;;;4.57;2.67;;;21.20;95.20;;;;;;6112554;22;46307;-67
2023/10/09 01:41:47;;;;;;;4.68;2.60;;;21.20;95.20;;;;;;6102475;22;45280;-67
2023/10/09 01:48:14;;;;;;;3.28;2.33;;;21.20;95.20;;;;;;6023444;22;45818;-67
2023/10/09 01:51:20;;;;;;;5.50;3.00;;;21.20;95.20;;;;;;6074659;22;45105;-67
2023/10/09 01:53:56;;;;;;;5.00;2.90;;;21.20;95.40;;;;;;6065520;22;44963;-67
2023/10/09 01:56:53;;;;;;;5.07;2.80;;;21.30;95.30;;;;;;6074824;22;45051;-67
2023/10/09 02:03:02;;;;;;;4.60;2.63;;;21.30;95.30;;;;;;6056377;22;45160;-67
2023/10/09 02:05:33;;;;;;;4.93;2.60;;;21.20;95.20;;;;;;6063849;22;45370;-67
2023/10/09 02:08:21;;;;;;;4.55;2.65;;;21.30;95.30;;;;;;6077310;22;45362;-67
2023/10/09 02:10:58;;;;;;;4.68;2.30;;;21.20;95.20;;;;;;6068752;22;45427;-67
2023/10/09 02:13:58;;;;;;;4.22;2.65;;;21.30;95.30;;;;;;6091346;22;45019;-67
2023/10/09 02:16:41;;;;;;;6.22;2.78;;;21.30;95.30;;;;;;6070306;22;45087;-67
2023/10/09 02:19:29;;;;;;;4.30;2.80;;;21.30;95.30;;;;;;6061477;22;45209;-67
2023/10/09 02:22:34;;;;;;;3.63;2.28;;;21.20;95.30;;;;;;6083953;22;45272;-67
2023/10/09 02:25:05;;;;;;;4.57;2.47;;;21.30;95.30;;;;;;6083492;22;45135;-67
2023/10/09 02:27:59;;;;;;;3.83;2.33;;;21.20;95.30;;;;;;6110475;22;45195;-67
2023/10/09 02:30:28;;;;;;;4.22;2.38;;;21.30;95.40;;;;;;6095735;22;45359;-67
2023/10/09 02:33:27;;;;;;;4.03;2.35;;;21.20;95.40;;;;;;6107317;22;46006;-67
2023/10/09 02:36:06;;;;;;;5.10;2.33;;;21.20;95.40;;;;;;6082116;22;44947;-67
2023/10/09 02:38:57;;;;;;;3.88;2.42;;;21.20;95.40;;;;;;6094022;22;45113;-67
2023/10/09 02:42:00;;;;;;;5.03;2.70;;;21.20;95.40;;;;;;6089426;22;45360;-67
2023/10/09 02:44:39;;;;;;;5.82;2.60;;;21.20;95.40;;;;;;6095594;22;46181;-67
2023/10/09 02:50:06;;;;;;;4.75;2.55;;;21.20;95.40;;;;;;6103745;22;45131;-67
2023/10/09 02:53:18;;;;;;;5.40;2.67;;;21.20;95.40;;;;;;6113063;22;45206;-67
2023/10/09 02:59:09;;;;;;;3.58;2.30;;;21.30;95.40;;;;;;6085860;22;45265;-67
2023/10/09 03:01:52;;;;;;;4.07;2.28;;;21.30;95.40;;;;;;6067374;22;45208;-67
2023/10/09 03:07:13;;;;;;;4.47;2.85;;;21.20;95.30;;;;;;6072133;22;46172;-67
2023/10/09 03:13:06;;;;;;;4.72;2.42;;;21.30;95.40;;;;;;6077186;22;45305;-67
2023/10/09 03:15:45;;;;;;;3.85;2.25;;;21.20;95.30;;;;;;6093227;22;45240;-67
2023/10/09 03:18:36;;;;;;;4.00;2.53;;;21.30;95.40;;;;;;6116165;22;47111;-67
2023/10/09 03:21:31;;;;;;;3.38;2.20;;;21.30;95.40;;;;;;6090444;22;45100;-67
2023/10/09 03:23:58;;;;;;;3.83;2.40;;;21.30;95.40;;;;;;6069014;22;45362;-67
2023/10/09 03:26:27;;;;;;;4.32;2.40;;;21.30;95.40;;;;;;6069737;22;44844;-67
2023/10/09 03:29:19;;;;;;;3.75;2.20;;;21.20;95.30;;;;;;6073370;22;46323;-67
2023/10/09 03:31:50;;;;;;;4.28;2.58;;;21.30;95.40;;;;;;6088692;22;45164;-67
2023/10/09 03:34:31;;;;;;;3.45;2.25;;;21.30;95.40;;;;;;6120194;22;45177;-67
2023/10/09 03:37:22;;;;;;;4.20;2.63;;;21.20;95.40;;;;;;6064225;22;45282;-67
2023/10/09 03:39:51;;;;;;;3.92;2.30;;;21.20;95.40;;;;;;6104087;22;45693;-67
2023/10/09 03:46:20;;;;;;;4.78;2.65;;;21.20;95.40;;;;;;6083865;22;45160;-67
2023/10/09 03:48:48;;;;;;;5.03;2.72;;;21.20;95.40;;;;;;6083585;22;45309;-67
2023/10/09 03:51:27;;;;;;;7.47;2.55;;;21.20;95.40;;;;;;6106357;22;46202;-67
2023/10/09 03:54:20;;;;;;;4.05;2.67;;;21.20;95.40;;;;;;6080830;22;45573;-67
2023/10/09 03:56:49;;;;;;;3.92;2.50;;;21.20;95.80;;;;;;6074872;22;45200;-67
2023/10/09 03:59:37;;;;;;;4.03;2.20;;;21.30;95.40;;;;;;6104300;22;45298;-67
2023/10/09 04:02:38;;;;;;;3.83;2.60;;;21.20;95.40;;;;;;6131612;22;46334;-67
2023/10/09 04:08:19;;;;;;;3.45;2.10;;;21.30;95.40;;;;;;6078651;22;45088;-67
2023/10/09 04:13:33;;;;;;;4.50;2.17;;;21.20;95.30;;;;;;6079593;22;45660;-67
2023/10/09 04:16:51;;;;;;;7.18;2.53;;;21.30;95.30;;;;;;6084057;22;45168;-67
2023/10/09 04:19:29;;;;;;;4.47;2.35;;;21.30;95.30;;;;;;6102795;22;44769;-67
2023/10/09 04:21:58;;;;;;;3.92;2.38;;;21.30;95.40;;;;;;6078125;22;45023;-68
2023/10/09 04:24:26;;;;;;;4.95;2.20;;;21.30;95.30;;;;;;6076130;22;45457;-67
2023/10/09 04:27:17;;;;;;;5.15;2.72;;;21.30;95.30;;;;;;6087665;22;44990;-67
2023/10/09 04:29:47;;;;;;;5.10;2.80;;;21.20;95.30;;;;;;6084954;22;45254;-67
2023/10/09 04:32:16;;;;;;;3.95;2.33;;;21.30;95.30;;;;;;6102607;22;45264;-67
2023/10/09 04:34:57;;;;;;;3.53;2.30;;;21.30;95.40;;;;;;6109604;22;46340;-67
2023/10/09 04:37:52;;;;;;;4.03;2.20;;;21.30;95.40;;;;;;6091071;22;45196;-67
2023/10/09 04:43:50;;;;;;;3.75;2.30;;;21.20;95.40;;;;;;6044047;22;44868;-67
2023/10/09 04:46:26;;;;;;;4.18;2.25;;;21.20;95.40;;;;;;6044103;22;46100;-67
2023/10/09 04:49:28;;;;;;;3.97;2.53;;;21.20;95.40;;;;;;6067289;22;45076;-67
2023/10/09 04:52:04;;;;;;;4.03;2.40;;;21.20;95.40;;;;;;6062762;22;45202;-66
2023/10/09 04:57:46;;;;;;;4.30;2.50;;;21.20;95.40;;;;;;6075829;22;46052;-66
2023/10/09 05:03:27;;;;;;;5.53;3.20;;;21.20;95.10;;;;;;6070861;22;45120;-66
2023/10/09 05:08:54;;;;;;;5.78;2.55;;;21.20;94.70;;;;;;6079039;22;45530;-65
2023/10/09 05:14:47;;;;;;;5.40;2.63;;;21.20;94.50;;;;;;6104802;22;45433;-66
2023/10/09 05:17:56;;;;;;;4.72;2.72;;;21.20;94.50;;;;;;6076893;22;45263;-66
2023/10/09 05:23:44;;;;;;;4.25;2.47;;;21.20;94.50;;;;;;6052452;22;45223;-66
2023/10/09 05:29:48;;;;;;;4.97;2.60;;;21.30;94.80;;;;;;6041333;22;45187;-66
2023/10/09 05:32:49;;;;;;;4.57;2.67;;;21.30;94.80;;;;;;6092168;22;45330;-66
2023/10/09 05:35:39;;;;;;;4.32;2.47;;;21.30;95.00;;;;;;6118046;22;45020;-67
2023/10/09 05:42:07;;;;;;;3.42;2.40;;;21.30;95.10;;;;;;6026687;22;45094;-66
2023/10/09 05:47:53;;;;;;;4.40;2.50;;;21.30;95.20;;;;;;6067241;22;45335;-66
2023/10/09 05:50:34;;;;;;;5.18;2.75;;;21.30;95.30;;;;;;6085029;22;45234;-66
2023/10/09 06:05:42;;;;;;;4.38;2.28;;;21.30;95.30;;;;;;6111929;22;45340;-66
2023/10/09 06:08:16;;;;;;;5.32;2.88;;;21.30;95.70;;;;;;6085730;22;45360;-67
2023/10/09 06:13:45;;;;;;;5.55;2.72;;;21.30;95.40;;;;;;6039199;22;45235;-66
2023/10/09 06:19:48;;;;;;;4.55;2.63;;;21.30;95.60;;;;;;6053967;22;45181;-65
2023/10/09 06:23:23;;;;;;;4.35;2.30;;;21.30;95.50;;;;;;6086943;22;45157;-66
2023/10/09 06:29:33;;;;;;;5.22;2.50;;;21.30;95.60;;;;;;6053304;22;45251;-66
2023/10/09 06:32:34;;;;;;;5.43;2.60;;;21.30;95.60;;;;;;6120988;22;45295;-65
2023/10/09 06:35:55;;;;;;;5.57;2.75;;;21.30;95.70;;;;;;6107402;22;45167;-66
2023/10/09 06:38:23;;;;;;;4.43;2.45;;;21.30;95.80;;;;;;6090556;22;45197;-65
2023/10/09 06:44:52;;;;;;;3.65;2.17;;;21.30;95.80;;;;;;6126592;22;45399;-65
2023/10/09 06:47:26;;;;;;;4.55;2.58;;;21.40;96.00;;;;;;6109869;22;45112;-65
2023/10/09 06:50:55;;;;;;;3.53;2.38;;;21.30;96.00;;;;;;6151605;22;45208;-65
2023/10/09 07:02:53;;;;;;;5.32;2.70;;;21.30;96.00;;;;;;6117610;22;45122;-65
2023/10/09 07:08:59;;;;;;;9.75;2.40;;;21.30;95.90;;;;;;6098634;22;45122;-65
2023/10/09 07:11:58;;;;;;;4.95;2.50;;;21.40;95.90;;;;;;6189571;22;44826;-66
2023/10/09 07:15:21;;;;;;;4.75;3.03;;;21.30;95.80;;;;;;6207733;22;45008;-65
2023/10/09 07:21:11;;;;;;;4.63;2.83;;;21.40;95.80;;;;;;6195147;22;45078;-65
2023/10/09 07:23:48;;;;;;;4.85;2.83;;;21.40;95.80;;;;;;6209188;22;45126;-65
2023/10/09 07:26:47;;;;;;;4.43;2.60;;;21.40;95.80;;;;;;6237304;22;45122;-65
2023/10/09 07:29:40;;;;;;;5.07;3.03;;;21.40;95.90;;;;;;6213936;22;45629;-65
2023/10/09 07:32:27;;;;;;;4.47;2.58;;;21.40;95.90;;;;;;6221504;22;45292;-65
2023/10/09 07:35:34;;;;;;;3.97;2.53;;;21.40;95.80;;;;;;6231246;22;45064;-65
2023/10/09 07:38:02;;;;;;;4.90;2.53;;;21.40;95.90;;;;;;6236044;22;45017;-65
2023/10/09 07:41:33;;;;;;;4.55;2.67;;;21.40;95.90;;;;;;6255264;22;45086;-65
2023/10/09 07:43:50;;;;;;;4.25;2.45;;;21.40;95.90;;;;;;6250376;22;45204;-65
2023/10/09 07:46:51;;;;;;;4.35;2.38;;;21.40;95.90;;;;;;6253236;22;45266;-65
2023/10/09 07:49:42;;;;;;;4.32;2.33;;;21.40;95.90;;;;;;6253684;22;45392;-65
2023/10/09 07:52:09;;;;;;;4.13;2.42;;;21.40;95.90;;;;;;6270468;22;45050;-65
2023/10/09 07:55:25;;;;;;;4.97;2.63;;;21.40;96.00;;;;;;6269130;22;45138;-64
2023/10/09 07:58:11;;;;;;;4.32;2.80;;;21.40;96.00;;;;;;6278072;22;44786;-64
2023/10/09 08:07:00;;;;;;;6.18;2.72;;;21.40;96.10;;;;;;6290776;22;45731;-64
2023/10/09 08:20:17;;;;;;;3.63;2.38;;;21.40;96.00;;;;;;6306236;22;45645;-65
2023/10/09 08:23:28;;;;;;;4.35;2.38;;;21.40;96.00;;;;;;6316931;22;45108;-64
2023/10/09 08:29:19;;;;;;;6.10;2.72;;;21.40;96.00;;;;;;6308752;22;45285;-64
2023/10/09 08:32:18;;;;;;;5.63;2.80;;;21.50;96.00;;;;;;6318906;22;45395;-64
2023/10/09 08:35:29;;;;;;;4.57;2.70;;;21.40;96.00;;;;;;6318912;22;45093;-64
2023/10/09 08:38:52;;;;;;;3.17;2.03;;;21.50;96.00;;;;;;6315405;22;44837;-64
2023/10/09 08:41:31;;;;;;;5.38;2.80;;;21.50;96.00;;;;;;6321606;22;45251;-64
2023/10/09 08:47:54;;;;;;;4.00;2.40;;;21.50;96.00;;;;;;6317971;22;44537;-64
2023/10/09 08:50:54;;;;;;;4.63;2.42;;;21.40;96.00;;;;;;6325489;22;44994;-64
2023/10/09 08:53:52;;;;;;;4.57;2.65;;;21.50;96.10;;;;;;6301319;22;45273;-63
2023/10/09 08:56:39;;;;;;;4.50;2.35;;;21.50;96.10;;;;;;6302091;22;45483;-63
2023/10/09 08:59:18;;;;;;;4.45;2.33;;;21.40;96.00;;;;;;6301543;22;44991;-64
2023/10/09 09:02:06;;;;;;;6.47;3.00;;;21.40;95.90;;;;;;6304236;22;45100;-64
2023/10/09 09:04:38;;;;;;;6.15;3.25;;;21.40;95.80;;;;;;6303777;22;45054;-63
2023/10/09 09:07:25;;;;;;;4.88;2.80;;;21.40;95.70;;;;;;6305254;22;45143;-63
2023/10/09 09:10:21;;;;;;;7.97;3.15;;;21.40;95.60;;;;;;6189669;22;45370;-66
2023/10/09 09:12:53;;;;;;;5.93;3.08;;;21.30;95.40;;;;;;6248492;22;44782;-66
2023/10/09 09:15:26;;;;;;;5.60;2.85;;;21.30;95.40;;;;;;6220084;22;45158;-65
2023/10/09 09:18:19;;;;;;;5.30;2.80;;;21.40;95.20;;;;;;6238337;22;45360;-65
2023/10/09 09:20:53;;;;;;;5.00;2.90;;;21.40;95.10;;;;;;6247632;22;45522;-65
2023/10/09 09:26:58;;;;;;;6.82;3.13;;;21.40;94.90;;;;;;6287545;22;45074;-64
2023/10/09 09:29:55;;;;;;;7.00;3.42;;;21.40;95.00;;;;;;6297323;22;48282;-64
2023/10/09 09:32:39;;;;;;;8.18;3.20;;;21.40;95.10;;;;;;6300126;22;45060;-64
2023/10/09 09:35:42;;;;;;;3.90;2.72;;;21.50;95.10;;;;;;6302525;22;45134;-63
2023/10/09 09:38:17;;;;;;;5.82;2.78;;;21.40;95.10;;;;;;6303418;22;45280;-63
2023/10/09 09:41:02;;;;;;;4.75;2.97;;;21.50;95.20;;;;;;6301831;22;46024;-64
2023/10/09 09:43:41;;;;;;;5.50;2.58;;;21.50;95.30;;;;;;6306295;22;45622;-63
2023/10/09 09:46:11;;;;;;;5.55;2.70;;;21.50;95.30;;;;;;6307924;22;45236;-63
2023/10/09 09:48:44;;;;;;;4.95;2.78;;;21.50;95.30;;;;;;6214332;22;45267;-65
2023/10/09 09:51:42;;;;;;;3.85;2.40;;;21.50;95.40;;;;;;6239972;22;45440;-65
2023/10/09 09:54:15;;;;;;;4.10;2.50;;;21.50;95.40;;;;;;6294510;22;45089;-65
2023/10/09 09:57:08;;;;;;;4.15;2.42;;;21.50;95.40;;;;;;6330438;22;44998;-64
2023/10/09 10:00:08;;;;;;;8.40;2.65;;;21.50;95.50;;;;;;6328477;22;44648;-64
2023/10/09 10:02:41;;;;;;;5.40;2.58;;;21.60;95.60;;;;;;6334985;22;48171;-64
2023/10/09 10:05:49;;;;;;;3.67;2.20;;;21.60;95.70;;;;;;6338319;22;45058;-63
2023/10/09 10:08:51;;;;;;;4.63;2.80;;;21.50;95.80;;;;;;6339985;22;45044;-63
2023/10/09 10:11:43;;;;;;;4.43;2.50;;;21.60;95.90;;;;;;6340957;22;44576;-63
2023/10/09 10:14:28;;;;;;;3.38;2.10;;;21.60;96.00;;;;;;6340684;22;45415;-63
2023/10/09 10:17:36;;;;;;;3.90;2.33;;;21.50;96.00;;;;;;6341713;22;45151;-63
2023/10/09 10:23:25;;;;;;;4.78;2.70;;;21.50;96.10;;;;;;6338674;22;44894;-62
2023/10/09 10:30:10;;;;;;;3.97;2.15;;;21.60;96.10;;;;;;6335730;22;45109;-62
2023/10/09 10:33:09;;;;;;;6.30;2.60;;;21.60;96.00;;;;;;6342216;22;44462;-62
2023/10/09 10:36:06;;;;;;;5.50;2.53;;;21.60;96.10;;;;;;6342207;22;45286;-62
2023/10/09 10:38:52;;;;;;;4.18;2.10;;;21.60;96.10;;;;;;6341300;22;46448;-62
2023/10/09 10:41:36;;;;;;;4.65;2.30;;;21.60;96.10;;;;;;6341756;22;44988;-62
2023/10/09 10:44:37;;;;;;;3.70;2.10;;;21.60;96.10;;;;;;6340957;22;45024;-62
2023/10/09 10:47:15;;;;;;;4.78;2.63;;;21.60;96.20;;;;;;6340959;22;45155;-62
2023/10/09 10:50:11;;;;;;;6.50;2.38;;;21.60;96.10;;;;;;6336580;22;45191;-62
2023/10/09 10:53:21;;;;;;;4.03;2.25;;;21.60;96.20;;;;;;6334188;22;44940;-62
2023/10/09 10:59:11;;;;;;;4.93;2.40;;;21.60;96.20;;;;;;6201444;22;45103;-62
2023/10/09 11:01:58;;;;;;;4.88;2.75;;;21.60;96.30;;;;;;6280000;22;46058;-62
2023/10/09 11:04:41;;;;;;;4.70;2.58;;;21.60;96.30;;;;;;6327745;22;44969;-62
2023/10/09 11:07:26;;;;;;;5.60;2.50;;;21.60;96.30;;;;;;6326872;22;45146;-62
2023/10/09 11:10:27;;;;;;;4.05;2.70;;;21.60;96.30;;;;;;6322218;22;45076;-62
2023/10/09 11:15:47;;;;;;;6.40;2.10;;;21.60;96.50;;;;;;6288105;22;45122;-62
2023/10/09 11:18:56;;;;;;;4.68;2.67;;;21.60;96.50;;;;;;6303417;22;45072;-62
2023/10/09 11:21:40;;;;;;;4.53;2.30;;;21.60;96.50;;;;;;6291853;22;45015;-62
2023/10/09 11:24:33;;;;;;;4.60;2.45;;;21.60;96.50;;;;;;6293940;22;46486;-62
2023/10/09 11:27:39;;;;;;;6.32;2.70;;;21.60;96.60;;;;;;6285521;22;45030;-62
2023/10/09 11:30:32;;;;;;;5.80;2.80;;;21.60;96.70;;;;;;6290158;22;45135;-62
2023/10/09 11:33:14;;;;;;;5.72;2.70;;;21.60;96.60;;;;;;6280469;22;45006;-62
2023/10/09 11:35:42;;;;;;;4.82;2.53;;;21.60;96.60;;;;;;6279468;22;46515;-62
2023/10/09 11:38:24;;;;;;;4.32;2.38;;;21.60;96.50;;;;;;6267387;22;45097;-62
2023/10/09 11:41:06;;;;;;;4.88;2.63;;;21.60;96.50;;;;;;6262493;22;45041;-62
2023/10/09 11:44:05;;;;;;;5.35;2.40;;;21.60;96.60;;;;;;6254294;22;45298;-62
2023/10/09 11:47:34;;;;;;;3.78;2.38;;;21.60;96.70;;;;;;6247351;22;46219;-62
2023/10/09 11:59:04;;;;;;;4.90;2.72;;;21.70;96.70;;;;;;6205615;22;45227;-62
2023/10/09 12:02:01;;;;;;;4.22;2.63;;;21.70;96.60;;;;;;6211544;22;45184;-62
2023/10/09 12:04:41;;;;;;;3.72;2.15;;;21.70;96.70;;;;;;6206208;22;45100;-62
2023/10/09 12:07:10;;;;;;;5.82;2.65;;;21.70;96.70;;;;;;6189158;22;45215;-62
2023/10/09 12:10:05;;;;;;;4.60;2.80;;;21.70;96.70;;;;;;6185428;22;45226;-62
2023/10/09 12:12:34;;;;;;;4.72;2.50;;;21.70;96.80;;;;;;6181845;22;45151;-62
2023/10/09 12:15:05;;;;;;;3.92;2.35;;;21.70;96.80;;;;;;6176613;22;45285;-62
2023/10/09 12:17:36;;;;;;;5.88;2.90;;;21.70;96.80;;;;;;6156110;22;45224;-62
2023/10/09 12:20:14;;;;;;;3.92;2.33;;;21.60;96.80;;;;;;6153984;22;45148;-62
2023/10/09 12:23:07;;;;;;;2.88;2.13;;;21.70;96.80;;;;;;6155543;22;45191;-62
2023/10/09 12:25:45;;;;;;;4.75;2.67;;;21.60;96.80;;;;;;6144830;22;45102;-62
2023/10/09 12:28:20;;;;;;;5.45;2.75;;;21.70;96.90;;;;;;6174229;22;45114;-65
2023/10/09 12:31:15;;;;;;;4.28;2.60;;;21.70;96.90;;;;;;6175706;22;45228;-65
2023/10/09 12:33:42;;;;;;;4.63;2.72;;;21.70;96.90;;;;;;6173042;22;45076;-65
2023/10/09 12:36:24;;;;;;;3.45;2.28;;;21.70;97.00;;;;;;6181899;22;45065;-65
2023/10/09 12:39:21;;;;;;;5.00;2.50;;;21.70;97.00;;;;;;6165455;22;45056;-65
2023/10/09 12:42:11;;;;;;;5.10;2.45;;;21.70;97.00;;;;;;6181609;22;46243;-65
2023/10/09 12:45:01;;;;;;;3.47;2.00;;;21.70;97.00;;;;;;6185896;22;45340;-65
2023/10/09 12:47:42;;;;;;;3.72;2.50;;;21.70;96.90;;;;;;6189400;22;45031;-65
2023/10/09 12:50:41;;;;;;;3.88;2.13;;;21.70;97.00;;;;;;6185318;22;44809;-65
2023/10/09 12:53:42;;;;;;;4.05;2.30;;;21.70;97.00;;;;;;6190621;22;46556;-65
2023/10/09 12:56:37;;;;;;;4.57;2.22;;;21.70;97.00;;;;;;6177744;22;45024;-65
2023/10/09 12:59:14;;;;;;;4.68;2.25;;;21.70;97.10;;;;;;6170886;22;45155;-65
2023/10/09 13:01:43;;;;;;;3.60;2.20;;;21.70;97.10;;;;;;6177787;22;45351;-66
2023/10/09 13:04:42;;;;;;;3.78;2.25;;;21.70;97.10;;;;;;6165905;22;46268;-65
2023/10/09 13:07:09;;;;;;;3.15;2.47;;;21.70;97.10;;;;;;6180414;22;45170;-66
2023/10/09 13:12:43;;;;;;;3.15;2.20;;;21.70;97.10;;;;;;6161040;22;45279;-65
2023/10/09 13:15:10;;;;;;;4.53;2.20;;;21.70;97.20;;;;;;6176204;22;46628;-65
2023/10/09 13:18:09;;;;;;;5.07;2.47;;;21.70;97.20;;;;;;6166640;22;45017;-66
2023/10/09 13:20:54;;;;;;;4.72;2.47;;;21.70;97.20;;;;;;6159134;22;44810;-65
2023/10/09 13:23:21;;;;;;;3.00;1.88;;;21.70;97.30;;;;;;6160695;22;44883;-65
2023/10/09 13:25:49;;;;;;;3.55;2.35;;;21.70;97.30;;;;;;6188742;22;47296;-65
2023/10/09 13:28:40;;;;;;;3.05;2.03;;;21.70;97.30;;;;;;6162681;22;45250;-65
2023/10/09 13:31:13;;;;;;;5.35;2.28;;;21.70;97.40;;;;;;6139180;22;45018;-65
2023/10/09 13:33:42;;;;;;;3.28;2.10;;;21.70;97.40;;;;;;6150824;22;45241;-66
2023/10/09 13:36:32;;;;;;;4.30;2.40;;;21.70;97.40;;;;;;6154834;22;46213;-65
2023/10/09 13:39:26;;;;;;;3.92;2.08;;;21.70;97.40;;;;;;6149611;22;45100;-65
2023/10/09 13:42:24;;;;;;;4.57;2.30;;;21.70;97.50;;;;;;6148902;22;45233;-65
2023/10/09 13:45:28;;;;;;;5.10;2.17;;;21.70;97.50;;;;;;6154002;22;45138;-65
2023/10/09 13:47:55;;;;;;;3.35;2.25;;;21.70;97.50;;;;;;6144601;22;46627;-65
2023/10/09 13:50:33;;;;;;;3.65;2.40;;;21.70;97.40;;;;;;6162754;22;45108;-65
2023/10/09 13:53:44;;;;;;;3.40;2.13;;;21.70;97.40;;;;;;6114351;22;45110;-66
2023/10/09 13:56:39;;;;;;;4.03;2.08;;;21.70;97.40;;;;;;6173947;22;45086;-65
2023/10/09 14:01:47;;;;;;;4.45;2.33;;;21.70;97.50;;;;;;6119837;22;45206;-67
2023/10/09 14:04:50;;;;;;;2.65;2.08;;;21.80;97.50;;;;;;6083513;22;45226;-66
2023/10/09 14:07:32;;;;;;;4.03;2.58;;;21.70;97.50;;;;;;6126383;22;44833;-67
2023/10/09 14:10:17;;;;;;;5.53;2.45;;;21.70;97.50;;;;;;6140399;22;46732;-67
2023/10/09 14:15:45;;;;;;;3.95;2.20;;;21.80;97.60;;;;;;6065199;22;44831;-67
2023/10/09 14:18:34;;;;;;;5.07;2.35;;;21.80;97.60;;;;;;6075490;22;45171;-66
2023/10/09 14:21:15;;;;;;;4.97;2.22;;;21.70;97.60;;;;;;6072876;22;46226;-67
2023/10/09 14:23:46;;;;;;;5.75;2.90;;;21.70;97.60;;;;;;6197607;22;45165;-65
2023/10/09 14:26:27;;;;;;;3.17;2.13;;;21.80;97.70;;;;;;6102335;22;44869;-67
2023/10/09 14:29:06;;;;;;;3.70;2.40;;;21.70;97.70;;;;;;6090418;22;44894;-67
2023/10/09 14:32:13;;;;;;;6.45;2.53;;;21.80;97.70;;;;;;6045260;22;45993;-66
2023/10/09 14:35:16;;;;;;;3.85;2.55;;;21.70;97.70;;;;;;6058210;22;45353;-66
2023/10/09 14:38:04;;;;;;;3.63;2.15;;;21.80;97.80;;;;;;6054675;22;45125;-67
2023/10/09 14:40:32;;;;;;;3.05;2.15;;;21.70;97.80;;;;;;6076342;22;45210;-66
2023/10/09 14:43:28;;;;;;;4.97;2.10;;;21.70;97.90;;;;;;6061055;22;46232;-66
2023/10/09 14:45:57;;;;;;;5.97;2.33;;;21.70;98.00;;;;;;6043333;22;45161;-66
2023/10/09 14:51:06;;;;;;;3.97;2.30;;;21.70;98.00;;;;;;6062202;22;45262;-66
2023/10/09 14:53:49;;;;;;;4.10;2.40;;;21.70;98.00;;;;;;6135327;22;47405;-63
2023/10/09 14:56:30;;;;;;;4.30;2.03;;;21.80;98.00;;;;;;6142032;22;45101;-65
2023/10/09 14:59:07;;;;;;;3.95;2.40;;;21.80;98.10;;;;;;6090697;22;45125;-67
2023/10/09 15:01:53;;;;;;;4.15;2.15;;;21.80;98.10;;;;;;6092443;22;45136;-65
2023/10/09 15:04:20;;;;;;;5.15;2.20;;;21.80;98.20;;;;;;6086823;22;46397;-66
2023/10/09 15:07:24;;;;;;;5.25;2.60;;;21.80;98.20;;;;;;6110436;22;44995;-67
2023/10/09 15:09:52;;;;;;;4.47;2.25;;;21.80;98.20;;;;;;6068454;22;45252;-67
2023/10/09 15:15:50;;;;;;;5.03;2.40;;;21.80;98.30;;;;;;6114739;22;45811;-66
2023/10/09 15:19:16;;;;;;;2.97;1.98;;;21.80;98.30;;;;;;6072630;22;45064;-66
2023/10/09 15:24:25;;;;;;;3.22;2.13;;;21.80;98.40;;;;;;6078381;22;45380;-67
2023/10/09 15:26:53;;;;;;;4.00;2.45;;;21.80;98.50;;;;;;6098065;22;46789;-67
2023/10/09 15:29:42;;;;;;;2.95;1.77;;;21.80;98.50;;;;;;6079508;22;44871;-67
2023/10/09 15:32:41;;;;;;;4.68;2.58;;;21.70;98.50;;;;;;6070019;22;45189;-67
2023/10/09 15:35:09;;;;;;;3.53;2.33;;;21.70;98.60;;;;;;6081004;22;45435;-67
2023/10/09 15:37:43;;;;;;;3.67;2.20;;;21.70;98.60;;;;;;6061114;22;45234;-67
2023/10/09 15:43:33;;;;;;;6.25;2.50;;;21.70;98.70;;;;;;6059497;22;45250;-66
2023/10/09 15:46:33;;;;;;;3.33;2.35;;;21.70;98.80;;;;;;6063171;22;45592;-66
2023/10/09 15:49:04;;;;;;;3.55;2.22;;;21.70;98.90;;;;;;6088569;22;46704;-67
2023/10/09 15:51:32;;;;;;;3.38;2.08;;;21.70;98.90;;;;;;6058845;22;44785;-67
2023/10/09 15:54:27;;;;;;;4.03;2.40;;;21.70;99.00;;;;;;6085870;22;44825;-67
2023/10/09 15:56:55;;;;;;;5.15;2.50;;;21.70;99.10;;;;;;6077104;22;45172;-68
2023/10/09 15:59:24;;;;;;;4.30;2.30;;;21.70;99.10;;;;;;6053564;22;46083;-67
2023/10/09 16:02:43;;;;;;;4.00;2.17;;;21.70;99.10;;;;;;6098376;22;45572;-67
2023/10/09 16:05:35;;;;;;;2.92;2.20;;;21.70;99.20;;;;;;6039814;22;45201;-67
2023/10/09 16:08:12;;;;;;;3.42;2.35;;;21.70;99.20;;;;;;6085422;22;45425;-67
2023/10/09 16:11:01;;;;;;;3.55;2.33;;;21.70;99.20;;;;;;6064722;22;46393;-67
2023/10/09 16:13:59;;;;;;;2.92;1.90;;;21.70;99.10;;;;;;6063225;22;45102;-67
2023/10/09 16:16:43;;;;;;;3.78;2.50;;;21.70;99.20;;;;;;6046978;22;45354;-67
2023/10/09 16:32:50;;;;;;;5.18;2.85;;;21.60;99.20;;;;;;5982535;22;1502408;-68
2023/10/09 16:35:30;;;;;;;4.88;2.75;;;21.70;99.50;;;;;;5955410;22;45180;-68
2023/10/09 16:38:13;;;;;;;4.00;2.53;;;21.60;99.40;;;;;;5955105;22;45085;-68
2023/10/09 16:40:41;;;;;;;5.05;2.78;;;21.70;99.30;;;;;;5954828;22;45141;-68
2023/10/09 16:43:30;;;;;;;5.53;2.53;;;21.60;99.10;;;;;;5981201;22;46314;-67
2023/10/09 16:45:58;;;;;;;4.30;2.67;;;21.60;98.80;;;;;;5995083;22;45324;-67
2023/10/09 16:48:37;;;;;;;8.00;3.05;;;21.60;98.40;;;;;;6008581;22;45213;-67
2023/10/09 16:51:06;;;;;;;4.93;3.13;;;21.50;98.20;;;;;;5992767;22;45202;-66
2023/10/09 16:53:42;;;;;;;4.97;3.33;;;21.50;98.00;;;;;;5978860;22;45413;-67
2023/10/09 16:56:10;;;;;;;5.90;3.45;;;21.50;98.00;;;;;;5955168;22;45484;-67
2023/10/09 16:58:46;;;;;;;4.53;2.95;;;21.50;98.00;;;;;;5995445;22;44942;-68
2023/10/09 17:01:14;;;;;;;6.35;3.20;;;21.50;98.00;;;;;;5982962;22;45132;-68
2023/10/09 17:04:26;;;;;;;6.18;3.38;;;21.50;98.10;;;;;;6002293;22;47232;-67
2023/10/09 17:07:25;;;;;;;4.95;2.90;;;21.50;98.00;;;;;;5966763;22;45063;-67
2023/10/09 17:10:17;;;;;;;7.07;3.38;;;21.50;97.90;;;;;;5979340;22;45448;-67
2023/10/09 17:12:46;;;;;;;21.27;4.63;;;21.60;97.90;;;;;;6046596;22;45216;-68
2023/10/09 17:15:42;;;;;;;23.20;4.93;;;21.60;98.70;;;;;;6047578;22;45445;-62
2023/10/09 17:18:12;;;;;;;19.27;4.15;;;21.60;98.60;;;;;;5975578;22;45123;-66
2023/10/09 17:20:50;;;;;;;18.17;4.32;;;21.60;98.30;;;;;;6007098;22;44809;-70
2023/10/09 17:23:19;;;;;;;27.83;4.55;;;21.60;98.40;;;;;;6029506;22;45383;-69
2023/10/09 17:28:54;;;;;;;13.25;3.55;;;21.70;98.90;;;;;;6002713;22;45028;-67
2023/10/09 17:34:33;;;;;;;10.25;4.03;;;21.70;98.50;;;;;;5971146;22;45128;-67